NORTHERN QUEENS  -  Freeze Warning Freeze Warning        SOUTHERN QUEENS  -  Freeze Warning Freeze Warning      

Active alerts

Northern Queens
  Details for Northern Queens Freeze Warning
Southern Queens
  Details for Southern Queens Freeze Warning


WXM80 ListenWXM80 Stop

You find our weather info also at:

UK Metoffice

WeatherCloud

Weather Underground

Northeastern Weather Network

AWEKAS

Citizen Weather Observer Program (CWOP)

HAMweather, WeatherForYou, PWS Weather


Weather Underground History page Text

Daily Summary for January 10, 2018 Units:  Metric    English   Both
« Previous Day
Next Day »
Daily Weekly Monthly Yearly Custom
  High: Low: Average:
Temperature: 3.2 °C -4.7 °C 1.6 °C
Dew Point: 1.4 °C -6.3 °C -1.5 °C
Humidity: 89 % 68 % 80 %
Wind Speed: 7.1 km/h 0 km/h 1.8 km/h
Wind Gust: 13 km/h - -
Wind:- - ESE
Pressure: 1033.4 hPa 1021.2 hPa -
Precipitation: 0 mm    
Historical Graphs
 
 
Tabular Data for January 10, 2018
Time Temperature Dew Point Pressure Wind Wind Speed Wind Gust Humidity Rainfall Rate (Hourly)
02:07 -0.6 °C -4.8 °C 1030 hPa NNE 7.1 km/h 13 km/h 73 % 0 mm
08:17 -4.7 °C -6.3 °C 1032.4 hPa NNE 2.6 km/h 8 km/h 89 % 0 mm
08:25 -4.3 °C -5.9 °C 1032.4 hPa NNE 0.8 km/h 3.2 km/h 89 % 0 mm
08:44 -3 °C -4.6 °C 1024.3 hPa NNE 2.6 km/h 8 km/h 89 % 0 mm
08:45 -3 °C -4.7 °C 1033.1 hPa NNE 3.9 km/h 3.9 km/h 88 % 0 mm
08:50 -2.6 °C -4.5 °C 1024.6 hPa NE 4.5 km/h 6.4 km/h 87 % 0 mm
09:39 0.6 °C -4.1 °C 1033.4 hPa ENE 3.2 km/h 5.6 km/h 71 % 0 mm
09:44 0.8 °C -3.8 °C 1033.1 hPa ENE 3.4 km/h 5.6 km/h 71 % 0 mm
09:53 1.2 °C -3.7 °C 1033.4 hPa ENE 3.4 km/h 6.4 km/h 70 % 0 mm
10:03 1.5 °C -3.6 °C 1033.4 hPa ENE 6.4 km/h 11.3 km/h 69 % 0 mm
10:37 2.2 °C -3.1 °C 1033.1 hPa NE 2.7 km/h 5.6 km/h 68 % 0 mm
10:51 2.3 °C -3 °C 1032.7 hPa NE 4.3 km/h 5.6 km/h 68 % 0 mm
11:11 2.4 °C -2.7 °C 1033.1 hPa NNE 0.5 km/h 5.6 km/h 69 % 0 mm
11:19 2.4 °C -2.7 °C 1032.7 hPa NNE 2.1 km/h 4.8 km/h 69 % 0 mm
11:29 2.3 °C -3 °C 1032.4 hPa NNW 2.6 km/h 5.6 km/h 68 % 0 mm
12:08 1.9 °C -2.6 °C 1032.1 hPa North 3.7 km/h 5.6 km/h 72 % 0 mm
12:15 1.9 °C -2.8 °C 1032.1 hPa NNW 3.2 km/h 5.6 km/h 71 % 0 mm
12:25 2.1 °C -2.4 °C 1032.1 hPa NNE 5.1 km/h 7.4 km/h 72 % 0 mm
12:32 2.3 °C -2.2 °C 1032.1 hPa Calm   5.6 km/h 72 % 0 mm
12:39 2.7 °C -2 °C 1031.7 hPa NNE 1.6 km/h 5.6 km/h 71 % 0 mm
12:52 3 °C -1.9 °C 1031.7 hPa North 4.2 km/h 5.6 km/h 70 % 0 mm
12:59 3.1 °C -1.9 °C 1031.4 hPa NNE 4 km/h 6.4 km/h 70 % 0 mm
19:12 1.2 °C -2.2 °C 1022.9 hPa Calm     78 % 0 mm
19:25 1.1 °C -2.1 °C 1031.4 hPa Calm   1.9 km/h 79 % 0 mm
19:30 1.1 °C -2.1 °C 1031.4 hPa SSE 0.3 km/h 3.7 km/h 79 % 0 mm
19:36 1.1 °C -2.1 °C 1031.7 hPa SSE 0.8 km/h 1.9 km/h 79 % 0 mm
19:42 1.2 °C -2.1 °C 1031.7 hPa SSE 2.6 km/h 3.7 km/h 79 % 0 mm
19:47 1.2 °C -1.9 °C 1031.7 hPa Calm   3.7 km/h 80 % 0 mm
19:53 1.2 °C -1.9 °C 1031.7 hPa Calm   1.9 km/h 80 % 0 mm
20:01 1.2 °C -1.8 °C 1032.1 hPa Calm   1.9 km/h 80 % 0 mm
20:16 1.4 °C -1.4 °C 1031.4 hPa SSE 1.4 km/h 3.7 km/h 81 % 0 mm
20:46 1.8 °C -0.9 °C 1030.7 hPa South 1.6 km/h 8 km/h 82 % 0 mm
20:51 1.8 °C -0.9 °C 1030.7 hPa Calm   3.2 km/h 82 % 0 mm
21:00 1.9 °C -0.8 °C 1030.7 hPa South 2.4 km/h 5.6 km/h 82 % 0 mm
21:24 2 °C -0.4 °C 1022.2 hPa South 1.4 km/h 3.7 km/h 84 % 0 mm
21:35 2.1 °C -0.2 °C 1030.7 hPa South 2.7 km/h 5.6 km/h 85 % 0 mm
21:51 2.2 °C -0.1 °C 1030.7 hPa SSW 3.2 km/h 5.6 km/h 85 % 0 mm
21:59 2.3 °C 0.2 °C 1030.7 hPa Calm   1.9 km/h 86 % 0 mm
22:08 2.3 °C 0.2 °C 1030.7 hPa Calm   1.9 km/h 86 % 0 mm
22:25 2.5 °C 0.6 °C 1021.9 hPa Calm   1.9 km/h 87 % 0 mm
22:33 2.7 °C 0.9 °C 1030.4 hPa South 2.9 km/h 5.6 km/h 88 % 0 mm
22:39 2.8 °C 1 °C 1030.4 hPa South 2.3 km/h 5.6 km/h 88 % 0 mm
22:44 2.8 °C 1.1 °C 1030.4 hPa SW 0.5 km/h 3.7 km/h 88 % 0 mm
22:49 2.9 °C 1.1 °C 1030.4 hPa Calm   1.9 km/h 88 % 0 mm
22:57 3 °C 1.2 °C 1030.4 hPa Calm     88 % 0 mm
23:03 3.1 °C 1.3 °C 1021.6 hPa Calm     88 % 0 mm
23:08 3.2 °C 1.4 °C 1030.4 hPa Calm     88 % 0 mm
23:15 3.2 °C 1.4 °C 1021.6 hPa Calm     88 % 0 mm
23:25 3.2 °C 1.3 °C 1030 hPa Calm     87 % 0 mm
23:30 3.2 °C 1.2 °C 1021.6 hPa Calm     87 % 0 mm
23:35 3.2 °C 1.2 °C 1029.7 hPa Calm     87 % 0 mm
23:42 3.1 °C 1.2 °C 1030 hPa Calm     87 % 0 mm
23:47 3.1 °C 1.1 °C 1029.7 hPa Calm     87 % 0 mm
23:57 3 °C 1.2 °C 1021.2 hPa SW 1.3 km/h 3.7 km/h 88 % 0 mm
Crab Meadow Weather
Compliments of Weather Underground - 1.5 mb

Script developed by  Jim McMurry - jmcmurry@mwt.net Adapted for the template by  Wim van der Kuil - Leuven-Template.eu

Recycling: We use over 80,000,000,000 aluminum soda cans every year.